sensor_id;sensor_type;location;lat;lon;timestamp;P1;durP1;ratioP1;P2;durP2;ratioP2
55756;SDS011;41676;44.610;44.078;2023-06-10T00:01:59;11.18;;;4.22;;
55756;SDS011;41676;44.610;44.078;2023-06-10T00:07:00;15.18;;;4.43;;
55756;SDS011;41676;44.610;44.078;2023-06-10T00:12:01;10.27;;;4.07;;
55756;SDS011;41676;44.610;44.078;2023-06-10T00:17:02;7.72;;;4.20;;
55756;SDS011;41676;44.610;44.078;2023-06-10T00:22:03;7.60;;;4.03;;
55756;SDS011;41676;44.610;44.078;2023-06-10T00:27:05;7.03;;;4.05;;
55756;SDS011;41676;44.610;44.078;2023-06-10T00:32:07;6.93;;;4.68;;
55756;SDS011;41676;44.610;44.078;2023-06-10T00:37:08;9.00;;;4.22;;
55756;SDS011;41676;44.610;44.078;2023-06-10T00:42:08;7.22;;;4.50;;
55756;SDS011;41676;44.610;44.078;2023-06-10T00:47:10;9.20;;;4.32;;
55756;SDS011;41676;44.610;44.078;2023-06-10T00:52:11;8.98;;;4.20;;
55756;SDS011;41676;44.610;44.078;2023-06-10T00:57:14;6.50;;;4.28;;
55756;SDS011;41676;44.610;44.078;2023-06-10T01:02:14;7.70;;;4.25;;
55756;SDS011;41676;44.610;44.078;2023-06-10T01:12:38;11.23;;;5.23;;
55756;SDS011;41676;44.610;44.078;2023-06-10T01:17:55;18.25;;;5.68;;
55756;SDS011;41676;44.610;44.078;2023-06-10T01:22:59;7.13;;;4.70;;
55756;SDS011;41676;44.610;44.078;2023-06-10T01:33:10;13.82;;;5.07;;
55756;SDS011;41676;44.610;44.078;2023-06-10T01:38:13;10.02;;;4.70;;
55756;SDS011;41676;44.610;44.078;2023-06-10T01:43:14;23.55;;;5.38;;
55756;SDS011;41676;44.610;44.078;2023-06-10T01:48:16;11.60;;;4.90;;
55756;SDS011;41676;44.610;44.078;2023-06-10T01:53:16;10.68;;;4.80;;
55756;SDS011;41676;44.610;44.078;2023-06-10T01:58:17;6.82;;;4.38;;
55756;SDS011;41676;44.610;44.078;2023-06-10T02:03:18;16.75;;;5.18;;
55756;SDS011;41676;44.610;44.078;2023-06-10T02:08:19;11.45;;;5.38;;
55756;SDS011;41676;44.610;44.078;2023-06-10T02:13:19;11.80;;;4.97;;
55756;SDS011;41676;44.610;44.078;2023-06-10T02:18:20;13.20;;;4.97;;
55756;SDS011;41676;44.610;44.078;2023-06-10T02:23:22;39.80;;;6.68;;
55756;SDS011;41676;44.610;44.078;2023-06-10T02:28:23;14.25;;;4.85;;
55756;SDS011;41676;44.610;44.078;2023-06-10T02:33:24;12.32;;;4.53;;
55756;SDS011;41676;44.610;44.078;2023-06-10T02:38:25;8.32;;;4.55;;
55756;SDS011;41676;44.610;44.078;2023-06-10T02:43:25;17.15;;;4.45;;
55756;SDS011;41676;44.610;44.078;2023-06-10T02:48:26;10.13;;;3.80;;
55756;SDS011;41676;44.610;44.078;2023-06-10T02:53:28;10.32;;;3.88;;
55756;SDS011;41676;44.610;44.078;2023-06-10T02:58:29;10.90;;;4.10;;
55756;SDS011;41676;44.610;44.078;2023-06-10T03:03:29;9.63;;;4.10;;
55756;SDS011;41676;44.610;44.078;2023-06-10T03:08:30;6.55;;;3.72;;
55756;SDS011;41676;44.610;44.078;2023-06-10T03:13:31;8.00;;;3.80;;
55756;SDS011;41676;44.610;44.078;2023-06-10T03:18:32;9.77;;;3.72;;
55756;SDS011;41676;44.610;44.078;2023-06-10T03:23:33;19.10;;;4.38;;
55756;SDS011;41676;44.610;44.078;2023-06-10T03:28:35;18.65;;;4.50;;
55756;SDS011;41676;44.610;44.078;2023-06-10T03:33:36;7.63;;;3.10;;
55756;SDS011;41676;44.610;44.078;2023-06-10T03:38:37;9.63;;;3.15;;
55756;SDS011;41676;44.610;44.078;2023-06-10T03:43:38;8.60;;;3.40;;
55756;SDS011;41676;44.610;44.078;2023-06-10T03:48:40;9.10;;;3.60;;
55756;SDS011;41676;44.610;44.078;2023-06-10T03:53:41;8.52;;;3.30;;
55756;SDS011;41676;44.610;44.078;2023-06-10T03:58:42;10.30;;;2.88;;
55756;SDS011;41676;44.610;44.078;2023-06-10T04:03:43;6.88;;;2.75;;
55756;SDS011;41676;44.610;44.078;2023-06-10T04:08:44;8.18;;;2.78;;
55756;SDS011;41676;44.610;44.078;2023-06-10T04:13:45;5.90;;;2.35;;
55756;SDS011;41676;44.610;44.078;2023-06-10T04:18:46;8.68;;;2.70;;
55756;SDS011;41676;44.610;44.078;2023-06-10T04:23:47;7.20;;;2.80;;
55756;SDS011;41676;44.610;44.078;2023-06-10T04:28:48;5.75;;;2.40;;
55756;SDS011;41676;44.610;44.078;2023-06-10T04:33:49;8.13;;;2.58;;
55756;SDS011;41676;44.610;44.078;2023-06-10T04:38:50;12.63;;;2.72;;
55756;SDS011;41676;44.610;44.078;2023-06-10T04:43:52;9.18;;;2.88;;
55756;SDS011;41676;44.610;44.078;2023-06-10T04:48:53;8.27;;;2.80;;
55756;SDS011;41676;44.610;44.078;2023-06-10T04:53:54;5.97;;;2.30;;
55756;SDS011;41676;44.610;44.078;2023-06-10T04:58:58;6.22;;;2.50;;
55756;SDS011;41676;44.610;44.078;2023-06-10T05:03:59;11.38;;;3.05;;
55756;SDS011;41676;44.610;44.078;2023-06-10T05:09:00;7.78;;;2.47;;
55756;SDS011;41676;44.610;44.078;2023-06-10T05:14:01;6.38;;;2.65;;
55756;SDS011;41676;44.610;44.078;2023-06-10T05:19:02;5.28;;;2.30;;
55756;SDS011;41676;44.610;44.078;2023-06-10T05:24:03;12.48;;;3.30;;
55756;SDS011;41676;44.610;44.078;2023-06-10T05:29:05;11.70;;;2.55;;
55756;SDS011;41676;44.610;44.078;2023-06-10T05:34:06;11.18;;;2.40;;
55756;SDS011;41676;44.610;44.078;2023-06-10T05:39:06;3.80;;;1.83;;
55756;SDS011;41676;44.610;44.078;2023-06-10T05:44:07;6.60;;;2.55;;
55756;SDS011;41676;44.610;44.078;2023-06-10T05:49:08;5.30;;;2.40;;
55756;SDS011;41676;44.610;44.078;2023-06-10T05:54:09;10.10;;;2.60;;
55756;SDS011;41676;44.610;44.078;2023-06-10T05:59:10;7.95;;;2.20;;
55756;SDS011;41676;44.610;44.078;2023-06-10T06:04:10;7.43;;;2.28;;
55756;SDS011;41676;44.610;44.078;2023-06-10T06:09:11;30.15;;;2.92;;
55756;SDS011;41676;44.610;44.078;2023-06-10T06:14:12;18.35;;;2.50;;
55756;SDS011;41676;44.610;44.078;2023-06-10T06:19:13;16.42;;;2.70;;
55756;SDS011;41676;44.610;44.078;2023-06-10T06:24:15;8.30;;;2.13;;
55756;SDS011;41676;44.610;44.078;2023-06-10T06:29:16;4.93;;;2.08;;
55756;SDS011;41676;44.610;44.078;2023-06-10T06:34:17;56.20;;;4.47;;
55756;SDS011;41676;44.610;44.078;2023-06-10T06:39:18;8.15;;;2.08;;
55756;SDS011;41676;44.610;44.078;2023-06-10T06:44:18;3.88;;;1.83;;
55756;SDS011;41676;44.610;44.078;2023-06-10T06:49:19;6.93;;;2.08;;
55756;SDS011;41676;44.610;44.078;2023-06-10T06:54:20;18.00;;;2.58;;
55756;SDS011;41676;44.610;44.078;2023-06-10T06:59:21;6.32;;;1.85;;
55756;SDS011;41676;44.610;44.078;2023-06-10T07:04:22;7.28;;;1.77;;
55756;SDS011;41676;44.610;44.078;2023-06-10T07:09:23;7.30;;;1.77;;
55756;SDS011;41676;44.610;44.078;2023-06-10T07:14:24;26.02;;;3.00;;
55756;SDS011;41676;44.610;44.078;2023-06-10T07:19:25;20.20;;;2.75;;
55756;SDS011;41676;44.610;44.078;2023-06-10T07:24:26;12.15;;;1.90;;
55756;SDS011;41676;44.610;44.078;2023-06-10T07:29:26;4.68;;;2.03;;
55756;SDS011;41676;44.610;44.078;2023-06-10T07:34:27;10.55;;;2.25;;
55756;SDS011;41676;44.610;44.078;2023-06-10T07:39:28;10.48;;;2.20;;
55756;SDS011;41676;44.610;44.078;2023-06-10T07:44:29;17.00;;;2.58;;
55756;SDS011;41676;44.610;44.078;2023-06-10T07:49:30;10.10;;;2.08;;
55756;SDS011;41676;44.610;44.078;2023-06-10T07:54:30;6.82;;;2.08;;
55756;SDS011;41676;44.610;44.078;2023-06-10T07:59:32;6.30;;;2.50;;
55756;SDS011;41676;44.610;44.078;2023-06-10T08:04:33;8.30;;;2.17;;
55756;SDS011;41676;44.610;44.078;2023-06-10T08:09:35;16.15;;;2.10;;
55756;SDS011;41676;44.610;44.078;2023-06-10T08:14:36;6.97;;;1.92;;
55756;SDS011;41676;44.610;44.078;2023-06-10T08:19:37;15.68;;;2.17;;
55756;SDS011;41676;44.610;44.078;2023-06-10T08:24:38;6.10;;;2.22;;
55756;SDS011;41676;44.610;44.078;2023-06-10T08:29:39;7.65;;;2.00;;
55756;SDS011;41676;44.610;44.078;2023-06-10T08:34:40;9.27;;;1.75;;
55756;SDS011;41676;44.610;44.078;2023-06-10T08:39:41;22.98;;;2.97;;
55756;SDS011;41676;44.610;44.078;2023-06-10T08:44:41;5.78;;;2.47;;
55756;SDS011;41676;44.610;44.078;2023-06-10T08:49:46;6.20;;;2.22;;
55756;SDS011;41676;44.610;44.078;2023-06-10T08:54:57;8.73;;;2.63;;
55756;SDS011;41676;44.610;44.078;2023-06-10T09:00:03;9.45;;;2.30;;
55756;SDS011;41676;44.610;44.078;2023-06-10T09:05:06;42.38;;;3.05;;
55756;SDS011;41676;44.610;44.078;2023-06-10T09:10:08;19.85;;;3.15;;
55756;SDS011;41676;44.610;44.078;2023-06-10T09:15:10;11.80;;;2.33;;
55756;SDS011;41676;44.610;44.078;2023-06-10T09:25:13;9.68;;;2.40;;
55756;SDS011;41676;44.610;44.078;2023-06-10T09:30:34;11.02;;;2.50;;
55756;SDS011;41676;44.610;44.078;2023-06-10T09:35:35;6.28;;;2.58;;
55756;SDS011;41676;44.610;44.078;2023-06-10T09:40:48;11.48;;;2.75;;
55756;SDS011;41676;44.610;44.078;2023-06-10T09:45:52;7.28;;;2.47;;
55756;SDS011;41676;44.610;44.078;2023-06-10T09:50:57;12.50;;;2.58;;
55756;SDS011;41676;44.610;44.078;2023-06-10T09:55:59;6.47;;;2.72;;
55756;SDS011;41676;44.610;44.078;2023-06-10T10:01:03;10.03;;;2.60;;
55756;SDS011;41676;44.610;44.078;2023-06-10T10:06:05;7.82;;;2.22;;
55756;SDS011;41676;44.610;44.078;2023-06-10T10:11:06;12.20;;;2.78;;
55756;SDS011;41676;44.610;44.078;2023-06-10T10:16:11;9.27;;;2.50;;
55756;SDS011;41676;44.610;44.078;2023-06-10T10:21:16;8.90;;;2.92;;
55756;SDS011;41676;44.610;44.078;2023-06-10T10:26:21;14.60;;;3.22;;
55756;SDS011;41676;44.610;44.078;2023-06-10T10:31:26;14.35;;;3.42;;
55756;SDS011;41676;44.610;44.078;2023-06-10T10:36:31;21.60;;;3.58;;
55756;SDS011;41676;44.610;44.078;2023-06-10T10:41:32;10.02;;;3.17;;
55756;SDS011;41676;44.610;44.078;2023-06-10T10:46:49;11.57;;;3.20;;
55756;SDS011;41676;44.610;44.078;2023-06-10T10:51:54;13.55;;;3.42;;
55756;SDS011;41676;44.610;44.078;2023-06-10T10:57:17;27.13;;;3.40;;
55756;SDS011;41676;44.610;44.078;2023-06-10T11:02:32;9.73;;;2.95;;
55756;SDS011;41676;44.610;44.078;2023-06-10T11:07:53;10.48;;;3.30;;
55756;SDS011;41676;44.610;44.078;2023-06-10T11:12:58;15.18;;;4.05;;
55756;SDS011;41676;44.610;44.078;2023-06-10T11:23:30;14.98;;;3.17;;
55756;SDS011;41676;44.610;44.078;2023-06-10T11:28:33;21.00;;;4.18;;
55756;SDS011;41676;44.610;44.078;2023-06-10T11:33:33;16.15;;;3.92;;
55756;SDS011;41676;44.610;44.078;2023-06-10T11:38:42;28.98;;;4.43;;
55756;SDS011;41676;44.610;44.078;2023-06-10T11:43:44;14.77;;;3.70;;
55756;SDS011;41676;44.610;44.078;2023-06-10T11:48:51;103.45;;;7.40;;
55756;SDS011;41676;44.610;44.078;2023-06-10T11:53:54;34.50;;;5.35;;
55756;SDS011;41676;44.610;44.078;2023-06-10T12:04:09;19.80;;;3.88;;
55756;SDS011;41676;44.610;44.078;2023-06-10T12:14:15;14.88;;;4.13;;
55756;SDS011;41676;44.610;44.078;2023-06-10T12:19:16;19.98;;;4.05;;
55756;SDS011;41676;44.610;44.078;2023-06-10T12:24:17;23.50;;;4.50;;
55756;SDS011;41676;44.610;44.078;2023-06-10T12:29:22;17.25;;;4.75;;
55756;SDS011;41676;44.610;44.078;2023-06-10T12:34:37;13.82;;;4.18;;
55756;SDS011;41676;44.610;44.078;2023-06-10T12:39:39;10.40;;;3.50;;
55756;SDS011;41676;44.610;44.078;2023-06-10T12:44:41;13.03;;;3.80;;
55756;SDS011;41676;44.610;44.078;2023-06-10T12:49:42;12.93;;;4.00;;
55756;SDS011;41676;44.610;44.078;2023-06-10T12:54:42;11.50;;;4.45;;
55756;SDS011;41676;44.610;44.078;2023-06-10T12:59:44;34.03;;;16.05;;
55756;SDS011;41676;44.610;44.078;2023-06-10T13:04:50;34.78;;;8.07;;
55756;SDS011;41676;44.610;44.078;2023-06-10T13:09:51;10.32;;;4.50;;
55756;SDS011;41676;44.610;44.078;2023-06-10T13:14:54;8.45;;;3.88;;
55756;SDS011;41676;44.610;44.078;2023-06-10T13:19:55;18.17;;;4.72;;
55756;SDS011;41676;44.610;44.078;2023-06-10T13:24:56;9.63;;;4.03;;
55756;SDS011;41676;44.610;44.078;2023-06-10T13:29:56;12.38;;;3.80;;
55756;SDS011;41676;44.610;44.078;2023-06-10T13:34:57;10.90;;;3.92;;
55756;SDS011;41676;44.610;44.078;2023-06-10T13:39:58;14.52;;;4.13;;
55756;SDS011;41676;44.610;44.078;2023-06-10T13:44:59;86.10;;;7.88;;
55756;SDS011;41676;44.610;44.078;2023-06-10T13:50:00;13.45;;;4.10;;
55756;SDS011;41676;44.610;44.078;2023-06-10T13:55:01;102.93;;;8.48;;
55756;SDS011;41676;44.610;44.078;2023-06-10T14:00:02;30.58;;;4.90;;
55756;SDS011;41676;44.610;44.078;2023-06-10T14:05:03;22.65;;;4.43;;
55756;SDS011;41676;44.610;44.078;2023-06-10T14:10:05;10.65;;;3.65;;
55756;SDS011;41676;44.610;44.078;2023-06-10T14:15:08;17.83;;;4.78;;
55756;SDS011;41676;44.610;44.078;2023-06-10T14:20:09;17.02;;;3.63;;
55756;SDS011;41676;44.610;44.078;2023-06-10T14:25:10;9.90;;;3.85;;
55756;SDS011;41676;44.610;44.078;2023-06-10T14:30:12;16.17;;;4.30;;
55756;SDS011;41676;44.610;44.078;2023-06-10T14:35:13;8.07;;;4.15;;
55756;SDS011;41676;44.610;44.078;2023-06-10T14:40:13;21.05;;;5.10;;
55756;SDS011;41676;44.610;44.078;2023-06-10T14:45:14;9.43;;;3.65;;
55756;SDS011;41676;44.610;44.078;2023-06-10T14:50:15;7.78;;;3.33;;
55756;SDS011;41676;44.610;44.078;2023-06-10T14:55:16;14.27;;;5.00;;
55756;SDS011;41676;44.610;44.078;2023-06-10T15:00:17;10.07;;;4.85;;
55756;SDS011;41676;44.610;44.078;2023-06-10T15:10:20;15.90;;;5.97;;
55756;SDS011;41676;44.610;44.078;2023-06-10T15:15:22;10.68;;;4.38;;
55756;SDS011;41676;44.610;44.078;2023-06-10T15:20:23;13.02;;;3.67;;
55756;SDS011;41676;44.610;44.078;2023-06-10T15:25:24;12.48;;;3.35;;
55756;SDS011;41676;44.610;44.078;2023-06-10T15:30:25;67.00;;;6.45;;
55756;SDS011;41676;44.610;44.078;2023-06-10T15:35:26;11.43;;;3.17;;
55756;SDS011;41676;44.610;44.078;2023-06-10T15:40:27;11.40;;;3.95;;
55756;SDS011;41676;44.610;44.078;2023-06-10T15:45:28;13.40;;;4.72;;
55756;SDS011;41676;44.610;44.078;2023-06-10T15:50:29;11.65;;;4.60;;
55756;SDS011;41676;44.610;44.078;2023-06-10T15:55:30;14.75;;;4.50;;
55756;SDS011;41676;44.610;44.078;2023-06-10T16:00:30;17.25;;;6.35;;
55756;SDS011;41676;44.610;44.078;2023-06-10T16:05:31;13.65;;;5.63;;
55756;SDS011;41676;44.610;44.078;2023-06-10T16:10:32;23.30;;;4.85;;
55756;SDS011;41676;44.610;44.078;2023-06-10T16:15:48;14.95;;;3.90;;
55756;SDS011;41676;44.610;44.078;2023-06-10T16:20:49;25.45;;;4.13;;
55756;SDS011;41676;44.610;44.078;2023-06-10T16:25:49;13.65;;;3.50;;
55756;SDS011;41676;44.610;44.078;2023-06-10T16:30:50;25.17;;;3.58;;
55756;SDS011;41676;44.610;44.078;2023-06-10T16:35:51;12.05;;;3.38;;
55756;SDS011;41676;44.610;44.078;2023-06-10T16:40:52;19.65;;;4.25;;
55756;SDS011;41676;44.610;44.078;2023-06-10T16:45:52;14.27;;;5.53;;
55756;SDS011;41676;44.610;44.078;2023-06-10T16:50:55;27.08;;;8.30;;
55756;SDS011;41676;44.610;44.078;2023-06-10T16:55:56;28.33;;;8.85;;
55756;SDS011;41676;44.610;44.078;2023-06-10T17:00:57;23.88;;;15.05;;
55756;SDS011;41676;44.610;44.078;2023-06-10T17:06:05;27.02;;;16.90;;
55756;SDS011;41676;44.610;44.078;2023-06-10T17:11:05;33.47;;;16.25;;
55756;SDS011;41676;44.610;44.078;2023-06-10T17:16:06;27.00;;;11.15;;
55756;SDS011;41676;44.610;44.078;2023-06-10T17:21:07;12.55;;;5.90;;
55756;SDS011;41676;44.610;44.078;2023-06-10T17:26:08;16.23;;;5.00;;
55756;SDS011;41676;44.610;44.078;2023-06-10T17:31:08;7.95;;;3.83;;
55756;SDS011;41676;44.610;44.078;2023-06-10T17:36:09;9.23;;;3.92;;
55756;SDS011;41676;44.610;44.078;2023-06-10T17:41:10;9.90;;;4.07;;
55756;SDS011;41676;44.610;44.078;2023-06-10T17:46:11;14.00;;;4.30;;
55756;SDS011;41676;44.610;44.078;2023-06-10T17:51:12;12.38;;;4.90;;
55756;SDS011;41676;44.610;44.078;2023-06-10T17:56:12;13.05;;;4.68;;
55756;SDS011;41676;44.610;44.078;2023-06-10T18:01:13;15.05;;;4.70;;
55756;SDS011;41676;44.610;44.078;2023-06-10T18:06:14;10.98;;;5.10;;
55756;SDS011;41676;44.610;44.078;2023-06-10T18:11:15;14.77;;;4.93;;
55756;SDS011;41676;44.610;44.078;2023-06-10T18:16:16;10.02;;;4.75;;
55756;SDS011;41676;44.610;44.078;2023-06-10T18:21:17;10.43;;;4.90;;
55756;SDS011;41676;44.610;44.078;2023-06-10T18:26:17;11.68;;;5.03;;
55756;SDS011;41676;44.610;44.078;2023-06-10T18:31:18;13.38;;;6.05;;
55756;SDS011;41676;44.610;44.078;2023-06-10T18:36:19;10.23;;;5.72;;
55756;SDS011;41676;44.610;44.078;2023-06-10T18:41:21;12.60;;;5.82;;
55756;SDS011;41676;44.610;44.078;2023-06-10T18:46:22;12.25;;;5.65;;
55756;SDS011;41676;44.610;44.078;2023-06-10T18:51:23;17.48;;;5.95;;
55756;SDS011;41676;44.610;44.078;2023-06-10T18:56:24;17.13;;;5.70;;
55756;SDS011;41676;44.610;44.078;2023-06-10T19:01:25;17.27;;;6.55;;
55756;SDS011;41676;44.610;44.078;2023-06-10T19:06:26;11.88;;;5.90;;
55756;SDS011;41676;44.610;44.078;2023-06-10T19:11:27;12.73;;;5.70;;
55756;SDS011;41676;44.610;44.078;2023-06-10T19:16:27;10.27;;;5.38;;
55756;SDS011;41676;44.610;44.078;2023-06-10T19:21:28;11.40;;;5.80;;
55756;SDS011;41676;44.610;44.078;2023-06-10T19:26:29;11.50;;;6.13;;
55756;SDS011;41676;44.610;44.078;2023-06-10T19:31:30;14.57;;;6.63;;
55756;SDS011;41676;44.610;44.078;2023-06-10T19:36:30;18.50;;;6.55;;
55756;SDS011;41676;44.610;44.078;2023-06-10T19:41:31;14.05;;;5.70;;
55756;SDS011;41676;44.610;44.078;2023-06-10T19:46:32;17.55;;;6.05;;
55756;SDS011;41676;44.610;44.078;2023-06-10T19:51:33;23.35;;;5.97;;
55756;SDS011;41676;44.610;44.078;2023-06-10T19:56:34;14.32;;;5.90;;
55756;SDS011;41676;44.610;44.078;2023-06-10T20:01:35;17.05;;;6.10;;
55756;SDS011;41676;44.610;44.078;2023-06-10T20:06:36;14.82;;;6.00;;
55756;SDS011;41676;44.610;44.078;2023-06-10T20:11:36;11.60;;;6.20;;
55756;SDS011;41676;44.610;44.078;2023-06-10T20:16:37;13.55;;;6.13;;
55756;SDS011;41676;44.610;44.078;2023-06-10T20:21:38;17.00;;;6.18;;
55756;SDS011;41676;44.610;44.078;2023-06-10T20:26:39;14.32;;;6.43;;
55756;SDS011;41676;44.610;44.078;2023-06-10T20:31:40;25.00;;;7.90;;
55756;SDS011;41676;44.610;44.078;2023-06-10T20:36:42;13.88;;;6.68;;
55756;SDS011;41676;44.610;44.078;2023-06-10T20:41:43;11.45;;;6.70;;
55756;SDS011;41676;44.610;44.078;2023-06-10T20:46:44;15.55;;;6.00;;
55756;SDS011;41676;44.610;44.078;2023-06-10T20:51:45;14.15;;;6.40;;
55756;SDS011;41676;44.610;44.078;2023-06-10T20:56:46;10.65;;;5.63;;
55756;SDS011;41676;44.610;44.078;2023-06-10T21:01:46;10.65;;;5.80;;
55756;SDS011;41676;44.610;44.078;2023-06-10T21:06:47;12.10;;;5.65;;
55756;SDS011;41676;44.610;44.078;2023-06-10T21:11:48;12.70;;;6.35;;
55756;SDS011;41676;44.610;44.078;2023-06-10T21:16:48;20.75;;;6.47;;
55756;SDS011;41676;44.610;44.078;2023-06-10T21:21:49;16.05;;;6.05;;
55756;SDS011;41676;44.610;44.078;2023-06-10T21:26:50;14.02;;;6.38;;
55756;SDS011;41676;44.610;44.078;2023-06-10T21:31:51;13.75;;;6.72;;
55756;SDS011;41676;44.610;44.078;2023-06-10T21:36:52;15.68;;;6.40;;
55756;SDS011;41676;44.610;44.078;2023-06-10T21:41:52;9.77;;;5.85;;
55756;SDS011;41676;44.610;44.078;2023-06-10T21:46:53;20.33;;;5.95;;
55756;SDS011;41676;44.610;44.078;2023-06-10T21:51:54;19.63;;;5.47;;
55756;SDS011;41676;44.610;44.078;2023-06-10T21:56:55;19.83;;;5.00;;
55756;SDS011;41676;44.610;44.078;2023-06-10T22:01:56;26.23;;;4.95;;
55756;SDS011;41676;44.610;44.078;2023-06-10T22:06:56;14.07;;;4.05;;
55756;SDS011;41676;44.610;44.078;2023-06-10T22:11:58;19.30;;;4.90;;
55756;SDS011;41676;44.610;44.078;2023-06-10T22:16:58;15.70;;;5.22;;
55756;SDS011;41676;44.610;44.078;2023-06-10T22:21:59;21.00;;;4.97;;
55756;SDS011;41676;44.610;44.078;2023-06-10T22:27:00;15.85;;;4.32;;
55756;SDS011;41676;44.610;44.078;2023-06-10T22:32:01;17.90;;;4.63;;
55756;SDS011;41676;44.610;44.078;2023-06-10T22:37:03;12.02;;;4.28;;
55756;SDS011;41676;44.610;44.078;2023-06-10T22:42:04;17.33;;;4.88;;
55756;SDS011;41676;44.610;44.078;2023-06-10T22:47:08;13.35;;;4.38;;
55756;SDS011;41676;44.610;44.078;2023-06-10T22:52:09;18.70;;;4.90;;
55756;SDS011;41676;44.610;44.078;2023-06-10T22:57:10;17.02;;;4.70;;
55756;SDS011;41676;44.610;44.078;2023-06-10T23:02:10;14.15;;;4.78;;
55756;SDS011;41676;44.610;44.078;2023-06-10T23:07:11;12.43;;;4.60;;
55756;SDS011;41676;44.610;44.078;2023-06-10T23:12:13;13.05;;;4.60;;
55756;SDS011;41676;44.610;44.078;2023-06-10T23:17:14;16.73;;;4.68;;
55756;SDS011;41676;44.610;44.078;2023-06-10T23:22:15;19.45;;;5.10;;
55756;SDS011;41676;44.610;44.078;2023-06-10T23:27:18;13.05;;;4.63;;
55756;SDS011;41676;44.610;44.078;2023-06-10T23:32:20;18.42;;;4.72;;
55756;SDS011;41676;44.610;44.078;2023-06-10T23:37:21;14.57;;;4.78;;
55756;SDS011;41676;44.610;44.078;2023-06-10T23:42:22;16.60;;;4.95;;
55756;SDS011;41676;44.610;44.078;2023-06-10T23:47:24;14.13;;;5.10;;
55756;SDS011;41676;44.610;44.078;2023-06-10T23:52:25;15.30;;;4.93;;
55756;SDS011;41676;44.610;44.078;2023-06-10T23:57:26;20.48;;;5.43;;
